| time (UTC) | temp C | wind direction | speed KPH | gust KPH | rain 1hr cm | rain 24hr cm | rain mn cm | humidity % | barometer mb |
| 20260903101619 | 22 | 204 | 3.2 | 4.8 | 0.00 | 0.00 | 0.00 | 92 | 1018.8 |
| 20260903100108 | 22 | 198 | 1.6 | 4.8 | 0.00 | 0.00 | 0.00 | 92 | 1018.8 |
| 20260903094622 | 22 | 194 | 3.2 | 6.4 | 0.00 | 0.00 | 0.00 | 92 | 1018.8 |
| 20260903093107 | 22 | 217 | 3.2 | 6.4 | 0.00 | 0.00 | 0.00 | 92 | 1018.9 |
| 20260903091622 | 22 | 216 | 3.2 | 6.4 | 0.00 | 0.00 | 0.00 | 92 | 1018.9 |
| 20260903090121 | 22 | 206 | 1.6 | 6.4 | 0.00 | 0.00 | 0.00 | 92 | 1018.9 |
| 20260903084623 | 22 | 209 | 1.6 | 8.0 | 0.00 | 0.00 | 0.00 | 92 | 1018.8 |
| 20260903083125 | 22 | 205 | 1.6 | 8.0 | 0.00 | 0.00 | 0.00 | 92 | 1018.6 |
| 20260903081621 | 22 | 229 | 3.2 | 6.4 | 0.00 | 0.00 | 0.00 | 92 | 1018.5 |
| 20260903080113 | 22 | 188 | 3.2 | 6.4 | 0.00 | 0.00 | 0.00 | 92 | 1018.7 |
| 20260903074612 | 22 | 0 | 0.0 | 0.0 | 0.00 | 0.00 | 0.00 | 92 | 1018.6 |
| 20260903073122 | 22 | 0 | 0.0 | 0.0 | 0.00 | 0.00 | 0.00 | 92 | 1018.6 |
| 20260903071616 | 22 | 0 | 0.0 | 0.0 | 0.00 | 0.00 | 0.00 | 92 | 1018.6 |
| 20260903070125 | 23 | 0 | 0.0 | 0.0 | 0.00 | 0.00 | 0.00 | 92 | 1018.5 |
| 20260903064610 | 23 | 0 | 0.0 | 6.4 | 0.00 | 0.00 | 0.00 | 92 | 1018.6 |
| 20260903063112 | 23 | 240 | 1.6 | 6.4 | 0.00 | 0.00 | 0.00 | 91 | 1018.5 |
| 20260903061602 | 23 | 215 | 1.6 | 4.8 | 0.00 | 0.00 | 0.00 | 91 | 1018.5 |
| 20260903060108 | 23 | 203 | 1.6 | 6.4 | 0.00 | 0.00 | 0.00 | 91 | 1018.5 |
| 20260903054604 | 23 | 210 | 1.6 | 4.8 | 0.00 | 0.00 | 0.00 | 91 | 1018.5 |
| 20260903053116 | 23 | 221 | 3.2 | 6.4 | 0.00 | 0.00 | 0.00 | 91 | 1018.6 |
| 20260903051611 | 23 | 225 | 0.0 | 4.8 | 0.00 | 0.00 | 0.00 | 91 | 1018.7 |
| 20260903050111 | 23 | 227 | 0.0 | 0.0 | 0.00 | 0.00 | 0.00 | 91 | 1018.5 |
| 20260903044604 | 23 | 0 | 1.6 | 4.8 | 0.00 | 0.00 | 0.00 | 91 | 1018.4 |
| 20260903043114 | 24 | 218 | 0.0 | 6.4 | 0.00 | 0.00 | 0.00 | 90 | 1018.4 |
| 20260903041606 | 24 | 240 | 1.6 | 6.4 | 0.00 | 0.00 | 0.00 | 90 | 1018.5 |
| 20260903040108 | 24 | 248 | 1.6 | 6.4 | 0.00 | 0.00 | 0.00 | 90 | 1018.6 |
| 20260903034608 | 24 | 224 | 3.2 | 6.4 | 0.00 | 0.00 | 0.00 | 90 | 1018.6 |
| 20260903033107 | 25 | 214 | 1.6 | 4.8 | 0.00 | 0.00 | 0.00 | 89 | 1018.6 |
| 20260903031633 | 25 | 0 | 0.0 | 0.0 | 0.00 | 0.00 | 0.00 | 89 | 1018.7 |
| 20260903030106 | 25 | 0 | 0.0 | 4.8 | 0.00 | 0.00 | 0.00 | 89 | 1018.8 |
| 20260903024611 | 25 | 235 | 3.2 | 4.8 | 0.00 | 0.00 | 0.00 | 89 | 1018.7 |
| 20260903023105 | 25 | 180 | 3.2 | 6.4 | 0.00 | 0.00 | 0.00 | 88 | 1018.8 |
| 20260903021606 | 25 | 211 | 3.2 | 6.4 | 0.00 | 0.00 | 0.00 | 88 | 1018.8 |
| 20260903020107 | 26 | 212 | 3.2 | 6.4 | 0.00 | 0.00 | 0.00 | 87 | 1018.7 |
| 20260903014606 | 26 | 225 | 4.8 | 8.0 | 0.00 | 0.00 | 0.00 | 87 | 1018.7 |
| 20260903013102 | 26 | 0 | 0.0 | 6.4 | 0.00 | 0.00 | 0.00 | 86 | 1018.6 |
| 20260903011607 | 26 | 221 | 1.6 | 6.4 | 0.00 | 0.00 | 0.00 | 85 | 1018.5 |
| 20260903010104 | 27 | 228 | 1.6 | 6.4 | 0.00 | 0.00 | 0.00 | 84 | 1018.2 |
| 20260903004609 | 27 | 212 | 1.6 | 6.4 | 0.00 | 0.00 | 0.00 | 83 | 1018.2 |
| 20260903003102 | 27 | 223 | 3.2 | 6.4 | 0.00 | 0.00 | 0.00 | 82 | 1018.1 |
| 20260903001614 | 28 | 0 | 1.6 | 4.8 | 0.00 | 0.00 | 0.00 | 79 | 1018.2 |
| 20260903000104 | 28 | 0 | 0.0 | 4.8 | 0.00 | 0.00 | 0.00 | 77 | 1018.1 |
| 20260902234601 | 30 | 209 | 0.0 | 4.8 | 0.00 | 0.00 | 0.00 | 75 | 1018.0 |
| 20260902233104 | 30 | 229 | 1.6 | 4.8 | 0.00 | 0.00 | 0.00 | 72 | 1017.8 |
| 20260902231559 | 31 | 0 | 0.0 | 4.8 | 0.00 | 0.00 | 0.00 | 68 | 1018.0 |
| 20260902230109 | 32 | 226 | 1.6 | 4.8 | 0.00 | 0.00 | 0.00 | 64 | 1018.0 |
| 20260902224604 | 33 | 158 | 0.0 | 6.4 | 0.00 | 0.00 | 0.00 | 60 | 1018.0 |
| 20260902223107 | 33 | 175 | 1.6 | 8.0 | 0.00 | 0.00 | 0.00 | 55 | 1018.0 |
| 20260902221609 | 33 | 261 | 1.6 | 8.0 | 0.00 | 0.00 | 0.00 | 54 | 1018.2 |
| 20260902220106 | 34 | 229 | 4.8 | 9.7 | 0.00 | 0.00 | 0.00 | 52 | 1018.2 |
| 20260902214607 | 34 | 243 | 3.2 | 8.0 | 0.00 | 0.00 | 0.00 | 49 | 1018.2 |
| 20260902213100 | 34 | 211 | 3.2 | 8.0 | 0.00 | 0.00 | 0.00 | 49 | 1018.2 |
| 20260902211617 | 34 | 132 | 3.2 | 12.9 | 0.00 | 0.00 | 0.00 | 48 | 1018.1 |
| 20260902210119 | 34 | 242 | 1.6 | 9.7 | 0.00 | 0.00 | 0.00 | 49 | 1018.3 |
| 20260902204603 | 35 | 0 | 1.6 | 14.5 | 0.00 | 0.00 | 0.00 | 49 | 1018.3 |
| 20260902203100 | 35 | 224 | 8.0 | 16.1 | 0.00 | 0.00 | 0.00 | 48 | 1018.6 |
| 20260902201613 | 35 | 265 | 3.2 | 12.9 | 0.00 | 0.00 | 0.00 | 49 | 1018.8 |
| 20260902200105 | 35 | 318 | 4.8 | 17.7 | 0.00 | 0.00 | 0.00 | 48 | 1019.0 |
| 20260902194601 | 35 | 170 | 6.4 | 16.1 | 0.00 | 0.00 | 0.00 | 45 | 1018.9 |
| 20260902193109 | 35 | 197 | 6.4 | 14.5 | 0.00 | 0.00 | 0.00 | 48 | 1019.1 |
| 20260902191606 | 34 | 245 | 1.6 | 9.7 | 0.00 | 0.00 | 0.00 | 54 | 1019.2 |
| 20260902190105 | 34 | 194 | 4.8 | 16.1 | 0.00 | 0.00 | 0.00 | 48 | 1019.2 |
| 20260902184602 | 34 | 227 | 3.2 | 14.5 | 0.00 | 0.00 | 0.00 | 50 | 1019.4 |
| 20260902183112 | 34 | 165 | 3.2 | 11.3 | 0.00 | 0.00 | 0.00 | 50 | 1019.6 |
| 20260902181614 | 34 | 0 | 4.8 | 12.9 | 0.00 | 0.00 | 0.00 | 54 | 1019.6 |
| 20260902180117 | 34 | 221 | 3.2 | 16.1 | 0.00 | 0.00 | 0.00 | 52 | 1019.8 |
| 20260902174601 | 33 | 94 | 3.2 | 19.3 | 0.00 | 0.00 | 0.00 | 51 | 1019.9 |
| 20260902173106 | 33 | 161 | 1.6 | 16.1 | 0.00 | 0.00 | 0.00 | 55 | 1020.1 |
| 20260902171606 | 32 | 0 | 1.6 | 12.9 | 0.00 | 0.00 | 0.00 | 55 | 1020.3 |
| 20260902170111 | 33 | 204 | 3.2 | 14.5 | 0.00 | 0.00 | 0.00 | 57 | 1020.6 |
| 20260902164607 | 32 | 0 | 3.2 | 17.7 | 0.00 | 0.00 | 0.00 | 59 | 1020.8 |
| 20260902163103 | 32 | 173 | 0.0 | 8.0 | 0.00 | 0.00 | 0.00 | 65 | 1021.0 |
| 20260902161604 | 32 | 275 | 4.8 | 12.9 | 0.00 | 0.00 | 0.00 | 61 | 1021.3 |
| 20260902160112 | 31 | 0 | 1.6 | 11.3 | 0.00 | 0.00 | 0.00 | 63 | 1021.3 |
| 20260902154601 | 31 | 0 | 3.2 | 9.7 | 0.00 | 0.00 | 0.00 | 65 | 1021.3 |
| 20260902153101 | 31 | 207 | 3.2 | 11.3 | 0.00 | 0.00 | 0.00 | 68 | 1021.3 |
| 20260902151642 | 30 | 208 | 1.6 | 8.0 | 0.00 | 0.00 | 0.00 | 70 | 1021.3 |
| 20260902144613 | 28 | 148 | 3.2 | 11.3 | 0.00 | 0.00 | 0.00 | 75 | 1021.1 |
| 20260902143103 | 27 | 159 | 1.6 | 8.0 | 0.00 | 0.00 | 0.00 | 78 | 1021.1 |
| 20260902141602 | 27 | 169 | 1.6 | 8.0 | 0.00 | 0.00 | 0.00 | 80 | 1021.1 |
| 20260902140100 | 26 | 163 | 1.6 | 6.4 | 0.00 | 0.00 | 0.00 | 83 | 1021.0 |
| 20260902134604 | 25 | 0 | 0.0 | 4.8 | 0.00 | 0.00 | 0.00 | 87 | 1020.9 |
| 20260902133108 | 23 | 154 | 1.6 | 8.0 | 0.00 | 0.00 | 0.00 | 89 | 1020.8 |
| 20260902131601 | 23 | 132 | 1.6 | 4.8 | 0.00 | 0.00 | 0.00 | 91 | 1020.8 |
| 20260902130106 | 22 | 0 | 0.0 | 6.4 | 0.00 | 0.00 | 0.00 | 92 | 1020.8 |
| 20260902124604 | 22 | 215 | 1.6 | 4.8 | 0.00 | 0.00 | 0.00 | 92 | 1020.8 |
| 20260902123101 | 21 | 218 | 1.6 | 6.4 | 0.00 | 0.00 | 0.00 | 93 | 1020.8 |
| 20260902121600 | 21 | 231 | 3.2 | 6.4 | 0.00 | 0.00 | 0.00 | 93 | 1020.8 |
| 20260902120108 | 21 | 202 | 3.2 | 6.4 | 0.00 | 0.00 | 0.00 | 93 | 1020.7 |
| 20260902114604 | 20 | 206 | 1.6 | 4.8 | 0.00 | 0.00 | 0.00 | 92 | 1020.7 |
| 20260902113059 | 20 | 209 | 1.6 | 6.4 | 0.00 | 0.00 | 0.00 | 92 | 1020.5 |
| 20260902111604 | 20 | 0 | 1.6 | 4.8 | 0.00 | 0.00 | 0.00 | 92 | 1020.4 |
| 20260902110108 | 20 | 195 | 1.6 | 6.4 | 0.00 | 0.00 | 0.00 | 92 | 1020.3 |
| 20260902104602 | 21 | 210 | 1.6 | 6.4 | 0.00 | 0.00 | 0.00 | 92 | 1020.4 |
| 20260902103058 | 21 | 230 | 0.0 | 3.2 | 0.00 | 0.00 | 0.00 | 92 | 1020.3 |